Terminal Aerodrome Forecast
Issued by NWS Sterling, VA

Home | Current Version | Previous Version | Text Only | Print | Product List | Glossary On
Versions: 1 2 3 4 5 6 7 8 9 10 11 12 13 14 15 16 17 18 19 20 21 22 23
243
FTUS41 KLWX 242324
TAFBWI
TAF
KBWI 242324Z 2500/2606 09011KT 5SM -RA OVC025
     FM250400 08011KT 3SM -RA BR OVC008
     FM251200 06006KT 2SM BR OVC008
     FM251600 36004KT 3SM BR OVC010
     FM251800 33006KT P6SM BKN010
     FM252300 32008KT P6SM BKN035
     FM260500 31009KT P6SM SCT070=

USA.gov is the U.S. government's official web portal to all federal, state and local government web resources and services.